Time;durP1;ratioP1;P1;durP2;ratioP2;P2;SDS_P1;SDS_P2;PMS_P1;PMS_P2;Temp;Humidity;BMP_temperature;BMP_pressure;BME280_temperature;BME280_humidity;BME280_pressure;Samples;Min_cycle;Max_cycle;Signal;HPM_P1;HPM_P2
2023/08/02 00:00:27;;;;;;;2.17;1.00;;;18.90;90.80;;;;;;5089759;28;20120;-82
2023/08/02 00:02:53;;;;;;;1.98;1.00;;;18.90;90.80;;;;;;5089882;28;20034;-82
2023/08/02 00:05:19;;;;;;;1.95;1.00;;;18.90;90.80;;;;;;5096247;28;20052;-80
2023/08/02 00:07:44;;;;;;;1.77;0.93;;;18.90;90.70;;;;;;5085479;28;20016;-82
2023/08/02 00:10:10;;;;;;;1.42;0.90;;;18.90;90.70;;;;;;5101760;28;20041;-81
2023/08/02 00:12:35;;;;;;;1.90;1.02;;;18.90;90.70;;;;;;5067086;28;20036;-83
2023/08/02 00:15:00;;;;;;;2.47;1.15;;;18.90;90.70;;;;;;5083805;28;20020;-79
2023/08/02 00:17:26;;;;;;;2.50;1.00;;;18.90;90.70;;;;;;5082954;28;20531;-81
2023/08/02 00:19:51;;;;;;;2.10;1.00;;;18.90;90.70;;;;;;5096126;28;20051;-81
2023/08/02 00:22:17;;;;;;;1.98;1.02;;;18.90;91.00;;;;;;5086421;28;20035;-83
2023/08/02 00:24:42;;;;;;;1.77;1.00;;;18.90;90.80;;;;;;5084542;28;20147;-80
2023/08/02 00:27:08;;;;;;;1.95;0.90;;;18.80;90.80;;;;;;5071720;28;20428;-82
2023/08/02 00:29:33;;;;;;;1.58;0.90;;;18.80;90.80;;;;;;5074391;28;20035;-82
2023/08/02 00:31:59;;;;;;;2.50;1.20;;;18.80;90.90;;;;;;5043332;28;20032;-80
2023/08/02 00:34:26;;;;;;;2.05;0.98;;;18.80;91.00;;;;;;5060856;28;20009;-81
2023/08/02 00:36:51;;;;;;;2.75;1.10;;;18.80;91.00;;;;;;5060846;28;20077;-82
2023/08/02 00:39:18;;;;;;;1.45;0.90;;;18.80;91.10;;;;;;5086792;28;20068;-81
2023/08/02 00:41:43;;;;;;;2.22;1.05;;;18.80;91.10;;;;;;5100864;28;20031;-80
2023/08/02 00:44:09;;;;;;;1.70;1.08;;;18.80;91.00;;;;;;5079325;28;20028;-84
2023/08/02 00:46:34;;;;;;;1.98;1.00;;;18.80;91.00;;;;;;5054602;28;20437;-79
2023/08/02 00:49:00;;;;;;;1.65;1.02;;;18.80;91.10;;;;;;5076692;28;20111;-79
2023/08/02 00:51:30;;;;;;;2.08;1.00;;;18.80;91.10;;;;;;5064968;28;20021;-78
2023/08/02 00:53:56;;;;;;;2.20;0.90;;;18.80;91.10;;;;;;5059966;28;20086;-78
2023/08/02 00:56:21;;;;;;;1.55;1.00;;;18.80;91.10;;;;;;5058995;28;20020;-78
2023/08/02 00:58:47;;;;;;;1.25;0.90;;;18.80;91.10;;;;;;5056338;28;20025;-78
2023/08/02 01:01:12;;;;;;;1.50;0.90;;;18.80;91.10;;;;;;5040130;28;20028;-78
2023/08/02 01:03:41;;;;;;;1.45;0.90;;;18.80;91.10;;;;;;5053700;28;20104;-78
2023/08/02 01:06:36;;;;;;;1.63;0.98;;;18.80;91.00;;;;;;5043672;28;20032;-77
2023/08/02 01:09:11;;;;;;;1.45;0.90;;;18.80;91.00;;;;;;5031465;28;20040;-78
2023/08/02 01:11:46;;;;;;;1.92;1.10;;;18.80;91.00;;;;;;5037956;28;20033;-78
2023/08/02 01:14:18;;;;;;;2.67;1.17;;;18.80;91.00;;;;;;5056734;28;20072;-78
2023/08/02 01:16:44;;;;;;;1.48;0.95;;;18.80;91.00;;;;;;5059808;28;20024;-79
2023/08/02 01:19:11;;;;;;;2.20;1.10;;;18.70;91.00;;;;;;5064392;28;20483;-78
2023/08/02 01:21:36;;;;;;;2.20;0.98;;;18.80;91.00;;;;;;5058133;28;20090;-78
2023/08/02 01:24:02;;;;;;;3.63;1.15;;;18.80;91.00;;;;;;5057309;28;20447;-78
2023/08/02 01:26:31;;;;;;;1.63;0.90;;;18.80;91.00;;;;;;5053895;28;20029;-78
2023/08/02 01:29:05;;;;;;;2.00;1.05;;;18.80;90.90;;;;;;5055663;28;20021;-78
2023/08/02 01:31:33;;;;;;;2.00;0.85;;;18.80;90.80;;;;;;5036762;28;20044;-78
2023/08/02 01:33:59;;;;;;;2.10;1.20;;;18.80;90.80;;;;;;5036928;28;20108;-78
2023/08/02 01:36:24;;;;;;;1.88;1.05;;;18.90;90.80;;;;;;5050689;28;20084;-78
2023/08/02 01:38:51;;;;;;;2.42;0.93;;;18.80;90.70;;;;;;5095716;28;20106;-78
2023/08/02 01:41:17;;;;;;;1.67;1.10;;;18.90;90.70;;;;;;5076789;28;20111;-78
2023/08/02 01:43:42;;;;;;;1.65;0.93;;;18.90;90.70;;;;;;5076461;28;20525;-78
2023/08/02 01:46:08;;;;;;;2.53;1.30;;;18.90;90.70;;;;;;5082395;28;20029;-77
2023/08/02 01:48:33;;;;;;;1.80;0.77;;;18.90;90.70;;;;;;5074563;28;20063;-77
2023/08/02 01:50:59;;;;;;;1.83;0.80;;;18.90;90.70;;;;;;5056620;28;20024;-79
2023/08/02 01:53:24;;;;;;;1.55;0.95;;;18.90;90.70;;;;;;5056794;28;20033;-78
2023/08/02 01:55:50;;;;;;;1.65;0.90;;;18.80;90.70;;;;;;5068833;28;20026;-78
2023/08/02 01:58:15;;;;;;;1.15;0.90;;;18.80;90.70;;;;;;5062082;28;20366;-78
2023/08/02 02:00:41;;;;;;;1.65;0.98;;;18.80;90.70;;;;;;5067942;28;20028;-78
2023/08/02 02:03:07;;;;;;;1.65;0.85;;;18.80;90.70;;;;;;5056408;28;20052;-78
2023/08/02 02:05:32;;;;;;;1.92;0.90;;;18.80;90.90;;;;;;5070191;28;20032;-78
2023/08/02 02:07:58;;;;;;;1.50;1.00;;;18.80;91.00;;;;;;5076860;28;20024;-77
2023/08/02 02:10:23;;;;;;;1.30;0.90;;;18.80;91.00;;;;;;5076305;28;20499;-78
2023/08/02 02:12:48;;;;;;;1.90;1.10;;;18.80;91.00;;;;;;5075083;28;20024;-77
2023/08/02 02:15:14;;;;;;;1.90;1.00;;;18.80;91.00;;;;;;5073803;28;20115;-77
2023/08/02 02:17:40;;;;;;;1.90;1.10;;;18.70;91.00;;;;;;5062145;28;20028;-78
2023/08/02 02:20:06;;;;;;;3.15;1.08;;;18.70;91.30;;;;;;5064116;28;20073;-75
2023/08/02 02:22:32;;;;;;;2.05;0.85;;;18.80;91.10;;;;;;5077747;28;20447;-78
2023/08/02 02:24:57;;;;;;;2.60;1.10;;;18.70;91.00;;;;;;5073270;28;20028;-77
2023/08/02 02:27:23;;;;;;;2.05;0.90;;;18.70;91.00;;;;;;5057474;28;20081;-77
2023/08/02 02:29:48;;;;;;;1.95;1.05;;;18.70;91.10;;;;;;5075187;28;20031;-77
2023/08/02 02:32:14;;;;;;;1.77;1.02;;;18.70;91.10;;;;;;5057681;28;20029;-78
2023/08/02 02:34:39;;;;;;;1.30;0.95;;;18.70;91.00;;;;;;5074498;28;20029;-78
2023/08/02 02:37:05;;;;;;;2.38;1.20;;;18.70;91.00;;;;;;5055541;28;20063;-77
2023/08/02 02:39:31;;;;;;;1.60;1.00;;;18.70;91.10;;;;;;5053382;28;20012;-78
2023/08/02 02:41:56;;;;;;;1.63;1.08;;;18.70;91.00;;;;;;5077600;28;20165;-77
2023/08/02 02:44:22;;;;;;;1.70;0.90;;;18.70;91.10;;;;;;5077300;28;20035;-77
2023/08/02 02:46:47;;;;;;;2.22;1.02;;;18.70;91.00;;;;;;5076458;28;20072;-77
2023/08/02 02:49:13;;;;;;;1.98;0.90;;;18.70;91.00;;;;;;5075404;28;20039;-77
2023/08/02 02:51:38;;;;;;;1.48;0.90;;;18.70;91.00;;;;;;5057254;28;20017;-77
2023/08/02 02:54:04;;;;;;;2.25;1.05;;;18.70;91.00;;;;;;5057259;28;20024;-78
2023/08/02 02:56:29;;;;;;;1.55;0.90;;;18.70;91.00;;;;;;5056592;28;20032;-79
2023/08/02 02:58:55;;;;;;;2.53;1.10;;;18.80;91.00;;;;;;5075256;28;20090;-78
2023/08/02 03:01:21;;;;;;;1.75;1.10;;;18.70;90.90;;;;;;5056915;28;20024;-78
2023/08/02 03:03:46;;;;;;;1.60;0.90;;;18.80;90.90;;;;;;5074610;28;20103;-78
2023/08/02 03:06:12;;;;;;;2.25;0.82;;;18.80;90.90;;;;;;5056226;28;20120;-78
2023/08/02 03:08:37;;;;;;;3.13;1.20;;;18.80;90.80;;;;;;5065341;28;20459;-79
2023/08/02 03:11:03;;;;;;;2.78;1.17;;;18.80;90.80;;;;;;5094557;28;20027;-78
2023/08/02 03:13:29;;;;;;;1.98;1.10;;;18.80;90.70;;;;;;5067150;28;20396;-78
2023/08/02 03:15:54;;;;;;;1.95;1.15;;;18.80;90.70;;;;;;5060661;28;20024;-81
2023/08/02 03:18:20;;;;;;;1.30;0.90;;;18.80;90.70;;;;;;5086720;28;20025;-83
2023/08/02 03:21:03;;;;;;;2.17;1.10;;;18.80;90.70;;;;;;5070916;28;20021;-80
2023/08/02 03:23:56;;;;;;;2.45;1.20;;;18.80;90.60;;;;;;5075496;28;20028;-79
2023/08/02 03:43:35;;;;;;;1.63;0.93;;;18.70;90.90;;;;;;5037588;22;20470;-84
2023/08/02 03:54:34;;;;;;;;;;;;;;;;;;;;;
2023/08/02 04:02:10;;;;;;;2.58;1.10;;;18.70;91.00;;;;;;5035069;22;20049;-79
2023/08/02 04:04:36;;;;;;;1.75;1.10;;;18.70;91.00;;;;;;5033219;28;20033;-78
2023/08/02 04:14:17;;;;;;;2.22;1.20;;;18.70;91.00;;;;;;4995331;28;20045;-80
2023/08/02 04:16:42;;;;;;;1.95;1.00;;;18.70;91.00;;;;;;5006548;28;20117;-80
2023/08/02 04:19:08;;;;;;;2.17;1.05;;;19.70;91.20;;;;;;5013866;28;20522;-80
2023/08/02 04:21:33;;;;;;;1.45;1.02;;;18.70;91.00;;;;;;5013918;28;20029;-81
2023/08/02 04:23:59;;;;;;;1.73;0.80;;;18.70;91.00;;;;;;5019618;28;20057;-80
2023/08/02 04:26:24;;;;;;;1.88;1.10;;;18.70;91.00;;;;;;5019124;28;20044;-80
2023/08/02 04:28:50;;;;;;;2.08;1.08;;;18.70;91.00;;;;;;5013202;28;20028;-81
2023/08/02 04:31:15;;;;;;;2.17;1.02;;;18.70;91.00;;;;;;5020812;28;20163;-81
2023/08/02 04:33:41;;;;;;;1.15;0.93;;;18.70;90.90;;;;;;5018026;28;20036;-80
2023/08/02 04:36:06;;;;;;;2.65;1.08;;;18.70;90.90;;;;;;5006244;28;20107;-80
2023/08/02 04:38:32;;;;;;;2.33;1.00;;;18.70;90.90;;;;;;5016197;28;20808;-80
2023/08/02 04:40:57;;;;;;;2.42;1.10;;;18.70;90.80;;;;;;5017798;28;20037;-80
2023/08/02 04:43:23;;;;;;;2.17;1.13;;;18.80;90.80;;;;;;5007678;28;20121;-79
2023/08/02 04:45:48;;;;;;;1.85;1.10;;;18.80;90.70;;;;;;5002163;28;20034;-80
2023/08/02 04:48:14;;;;;;;2.42;1.08;;;18.80;90.70;;;;;;5017195;28;20163;-80
2023/08/02 04:50:40;;;;;;;1.92;0.90;;;18.80;90.70;;;;;;5016595;28;20051;-81
2023/08/02 04:53:05;;;;;;;2.40;1.20;;;18.80;90.60;;;;;;5016422;28;20018;-80
2023/08/02 04:55:43;;;;;;;2.60;1.15;;;18.80;90.60;;;;;;5008380;28;20026;-80
2023/08/02 04:58:09;;;;;;;2.25;1.10;;;18.80;90.60;;;;;;5007758;28;20030;-77
2023/08/02 05:00:34;;;;;;;1.92;1.02;;;18.80;90.60;;;;;;5017612;28;20024;-79
2023/08/02 05:03:00;;;;;;;2.45;1.00;;;18.80;90.60;;;;;;5015515;28;20036;-80
2023/08/02 05:05:25;;;;;;;1.50;1.00;;;18.80;90.60;;;;;;5013860;28;20030;-80
2023/08/02 05:07:51;;;;;;;1.92;1.08;;;18.80;90.60;;;;;;5016702;28;20029;-80
2023/08/02 05:10:16;;;;;;;1.90;1.20;;;18.70;90.60;;;;;;5015407;28;20037;-80
2023/08/02 05:12:42;;;;;;;1.98;1.20;;;18.80;90.60;;;;;;5014940;28;20077;-80
2023/08/02 05:15:08;;;;;;;1.40;0.90;;;18.80;90.80;;;;;;5013971;28;20022;-80
2023/08/02 05:17:33;;;;;;;1.52;0.90;;;18.70;90.80;;;;;;5012075;28;20091;-80
2023/08/02 05:19:59;;;;;;;1.75;1.20;;;18.70;90.80;;;;;;5015705;28;20024;-80
2023/08/02 05:22:24;;;;;;;1.85;0.98;;;18.70;90.90;;;;;;5015901;28;20026;-79
2023/08/02 05:24:51;;;;;;;1.63;1.00;;;18.70;90.90;;;;;;5012151;28;20430;-80
2023/08/02 05:27:16;;;;;;;1.95;1.00;;;18.70;90.90;;;;;;5009142;28;20084;-79
2023/08/02 05:29:42;;;;;;;2.97;1.33;;;18.70;91.00;;;;;;5014512;28;20026;-80
2023/08/02 05:32:07;;;;;;;1.85;1.17;;;18.70;90.90;;;;;;5013658;28;20394;-80
2023/08/02 05:34:33;;;;;;;2.00;1.10;;;18.70;90.90;;;;;;5013577;28;20018;-80
2023/08/02 05:36:58;;;;;;;3.63;1.50;;;18.70;90.90;;;;;;4997020;28;20033;-80
2023/08/02 05:39:24;;;;;;;3.03;1.30;;;18.70;91.00;;;;;;5011280;28;20026;-80
2023/08/02 05:41:49;;;;;;;2.05;1.20;;;18.70;91.00;;;;;;5013877;28;20022;-79
2023/08/02 05:44:15;;;;;;;3.65;1.20;;;18.60;90.90;;;;;;5013873;28;20053;-79
2023/08/02 05:46:40;;;;;;;2.88;1.20;;;18.70;90.90;;;;;;4996592;28;20394;-80
2023/08/02 05:49:06;;;;;;;3.38;1.10;;;18.70;90.90;;;;;;5007279;28;20417;-80
2023/08/02 05:51:32;;;;;;;4.25;1.40;;;18.70;90.90;;;;;;5015121;28;20060;-80
2023/08/02 05:53:57;;;;;;;3.88;1.52;;;18.70;90.90;;;;;;5018236;28;20026;-79
2023/08/02 05:56:23;;;;;;;5.35;1.35;;;18.70;90.90;;;;;;5002378;28;20026;-80
2023/08/02 05:58:48;;;;;;;2.55;1.20;;;18.70;90.90;;;;;;4998329;28;20025;-79
2023/08/02 06:01:14;;;;;;;2.33;1.30;;;18.70;90.80;;;;;;4997271;28;20058;-80
2023/08/02 06:03:39;;;;;;;2.47;1.30;;;18.70;90.80;;;;;;4997056;28;20368;-80
2023/08/02 06:06:05;;;;;;;3.50;1.33;;;18.70;90.70;;;;;;4996845;28;20085;-80
2023/08/02 06:08:30;;;;;;;3.70;1.30;;;18.70;90.70;;;;;;4996783;28;20395;-79
2023/08/02 06:10:56;;;;;;;3.25;1.33;;;18.70;90.80;;;;;;4996414;28;20031;-80
2023/08/02 06:13:21;;;;;;;2.50;1.20;;;18.80;90.70;;;;;;4996530;28;20027;-79
2023/08/02 06:15:47;;;;;;;3.45;1.30;;;18.80;90.60;;;;;;4997965;28;20026;-79
2023/08/02 06:18:12;;;;;;;2.30;1.30;;;18.80;90.50;;;;;;4996632;28;20038;-76
2023/08/02 06:20:38;;;;;;;4.25;1.30;;;18.80;90.40;;;;;;4996721;28;20018;-80
2023/08/02 06:23:03;;;;;;;3.85;1.45;;;18.80;90.40;;;;;;4997674;28;20117;-80
2023/08/02 06:25:29;;;;;;;2.60;1.40;;;18.80;90.30;;;;;;5001898;28;20031;-79
2023/08/02 06:27:54;;;;;;;2.28;1.20;;;18.80;90.20;;;;;;4997647;28;20022;-80
2023/08/02 06:30:20;;;;;;;3.72;1.27;;;18.90;90.30;;;;;;5017571;28;20030;-82
2023/08/02 06:32:45;;;;;;;2.00;1.23;;;18.90;90.30;;;;;;5030107;28;20046;-82
2023/08/02 06:35:11;;;;;;;3.63;1.45;;;18.90;90.20;;;;;;5034575;28;20508;-81
2023/08/02 06:37:37;;;;;;;3.13;1.38;;;18.90;90.20;;;;;;5029647;28;20022;-81
2023/08/02 06:40:03;;;;;;;3.35;1.30;;;18.90;90.30;;;;;;5029358;28;20026;-83
2023/08/02 06:42:28;;;;;;;3.33;1.15;;;18.90;90.30;;;;;;5028849;28;20030;-82
2023/08/02 06:44:54;;;;;;;4.05;1.30;;;18.90;90.40;;;;;;5029335;28;20057;-82
2023/08/02 06:47:20;;;;;;;3.85;1.50;;;18.90;90.40;;;;;;5023366;28;20072;-80
2023/08/02 06:49:45;;;;;;;3.22;1.50;;;18.90;90.40;;;;;;5028721;28;20037;-81
2023/08/02 06:52:11;;;;;;;3.55;1.25;;;18.90;90.50;;;;;;5030321;28;20410;-82
2023/08/02 06:54:37;;;;;;;3.03;1.40;;;18.90;90.50;;;;;;5029700;28;20026;-79
2023/08/02 06:57:02;;;;;;;1.90;1.10;;;18.90;90.80;;;;;;5043270;28;20037;-81
2023/08/02 06:59:28;;;;;;;2.67;1.30;;;18.80;90.60;;;;;;5029057;28;20066;-82
2023/08/02 07:01:53;;;;;;;3.70;1.20;;;18.80;90.60;;;;;;5030439;28;20053;-81
2023/08/02 07:04:19;;;;;;;3.35;1.20;;;18.80;90.60;;;;;;5027715;28;20033;-82
2023/08/02 07:06:44;;;;;;;3.28;1.30;;;18.80;90.60;;;;;;5018546;28;20038;-81
2023/08/02 07:09:10;;;;;;;2.45;1.20;;;18.80;90.60;;;;;;5008917;28;20030;-82
2023/08/02 07:11:36;;;;;;;2.75;1.40;;;18.80;90.60;;;;;;5009946;28;20034;-81
2023/08/02 07:14:01;;;;;;;2.55;1.40;;;18.80;90.70;;;;;;5021998;28;20073;-81
2023/08/02 07:16:27;;;;;;;2.75;1.33;;;18.80;90.70;;;;;;5016762;28;20117;-80
2023/08/02 07:18:52;;;;;;;1.70;1.10;;;18.80;90.70;;;;;;5030836;28;20489;-80
2023/08/02 07:21:18;;;;;;;2.20;1.25;;;18.80;90.70;;;;;;5025303;28;20036;-82
2023/08/02 07:23:43;;;;;;;2.13;1.13;;;18.80;90.70;;;;;;5030672;28;20529;-80
2023/08/02 07:26:09;;;;;;;2.45;1.30;;;18.80;90.70;;;;;;5010895;28;20038;-81
2023/08/02 07:28:35;;;;;;;2.38;1.25;;;18.80;90.70;;;;;;5025116;28;20045;-81
2023/08/02 07:31:08;;;;;;;2.60;1.33;;;18.80;90.70;;;;;;5025901;28;20465;-80
2023/08/02 07:33:34;;;;;;;2.90;1.33;;;18.80;90.60;;;;;;5021324;28;20026;-80
2023/08/02 07:35:59;;;;;;;2.88;1.15;;;18.90;90.50;;;;;;5019822;28;20014;-81
2023/08/02 07:38:25;;;;;;;2.55;1.27;;;18.90;90.70;;;;;;5024522;28;20044;-79
2023/08/02 07:40:50;;;;;;;3.08;1.30;;;18.80;90.50;;;;;;5022916;28;20022;-80
2023/08/02 07:43:16;;;;;;;3.33;1.52;;;18.90;90.40;;;;;;5024265;28;20030;-80
2023/08/02 07:45:41;;;;;;;3.10;1.30;;;18.80;90.40;;;;;;5012119;28;20431;-81
2023/08/02 07:48:08;;;;;;;3.33;1.50;;;18.80;90.50;;;;;;5019020;28;20050;-80
2023/08/02 07:50:33;;;;;;;2.67;1.30;;;18.80;90.40;;;;;;5022649;28;20550;-80
2023/08/02 07:52:59;;;;;;;3.97;1.55;;;18.80;90.30;;;;;;5021321;28;20036;-78
2023/08/02 07:55:25;;;;;;;3.08;1.33;;;18.90;90.30;;;;;;5020453;28;20049;-81
2023/08/02 07:57:50;;;;;;;1.27;1.00;;;18.90;90.40;;;;;;5020873;28;20022;-80
2023/08/02 08:00:16;;;;;;;2.75;1.15;;;18.90;90.30;;;;;;5020867;28;20021;-79
2023/08/02 08:02:41;;;;;;;4.22;1.55;;;18.90;90.30;;;;;;5020532;28;20029;-80
2023/08/02 08:05:07;;;;;;;2.97;1.40;;;18.90;90.30;;;;;;5017535;28;20037;-79
2023/08/02 08:07:33;;;;;;;2.33;1.10;;;18.90;90.30;;;;;;5013620;28;20568;-81
2023/08/02 08:09:59;;;;;;;2.15;1.10;;;18.90;90.30;;;;;;5001173;28;20026;-80
2023/08/02 08:12:27;;;;;;;1.80;1.20;;;18.90;90.30;;;;;;4999692;28;20030;-77
2023/08/02 08:14:53;;;;;;;2.08;1.13;;;18.90;90.30;;;;;;5019433;28;20018;-79
2023/08/02 08:17:18;;;;;;;2.50;1.20;;;18.90;90.20;;;;;;5001262;28;20412;-79
2023/08/02 08:19:44;;;;;;;3.42;1.38;;;18.90;90.20;;;;;;4998845;28;20022;-80
2023/08/02 08:22:09;;;;;;;3.17;1.40;;;18.90;90.30;;;;;;4999122;28;20026;-79
2023/08/02 08:24:35;;;;;;;2.08;1.05;;;18.90;90.40;;;;;;4997907;28;20077;-80
2023/08/02 08:27:00;;;;;;;2.83;1.40;;;18.80;90.40;;;;;;4997536;28;20053;-80
2023/08/02 08:29:27;;;;;;;2.47;1.30;;;18.80;90.40;;;;;;5004232;28;20005;-79
2023/08/02 08:31:53;;;;;;;2.30;1.27;;;18.80;90.40;;;;;;5017560;28;20113;-81
2023/08/02 08:34:18;;;;;;;2.60;1.30;;;18.80;90.50;;;;;;5018943;28;20057;-81
2023/08/02 08:36:45;;;;;;;2.75;1.25;;;18.80;90.60;;;;;;5009510;28;20030;-80
2023/08/02 08:39:10;;;;;;;3.33;1.40;;;18.80;90.50;;;;;;4997630;28;20081;-79
2023/08/02 08:41:35;;;;;;;3.28;1.30;;;18.80;90.60;;;;;;4996906;28;20446;-79
2023/08/02 08:44:02;;;;;;;2.00;1.25;;;18.80;90.60;;;;;;4998619;28;20549;-80
2023/08/02 08:46:31;;;;;;;2.33;1.30;;;18.90;90.70;;;;;;5003490;28;20038;-81
2023/08/02 08:49:00;;;;;;;2.35;1.27;;;18.80;90.60;;;;;;5016392;28;20371;-79
2023/08/02 08:51:31;;;;;;;1.92;1.10;;;18.80;90.70;;;;;;5016256;28;20037;-78
2023/08/02 08:54:02;;;;;;;2.33;1.13;;;18.80;90.70;;;;;;5015968;28;20050;-79
2023/08/02 08:56:29;;;;;;;2.45;1.25;;;18.80;90.70;;;;;;5015092;28;20022;-79
2023/08/02 08:58:59;;;;;;;2.45;1.27;;;18.80;90.70;;;;;;5002099;28;20030;-79
2023/08/02 09:01:25;;;;;;;2.08;1.15;;;18.80;90.70;;;;;;5017123;28;20080;-80
2023/08/02 09:03:50;;;;;;;3.03;1.27;;;18.80;90.70;;;;;;5015029;28;20088;-79
2023/08/02 09:06:16;;;;;;;1.77;1.10;;;18.80;90.70;;;;;;5015537;28;20048;-79
2023/08/02 09:08:45;;;;;;;2.47;1.20;;;18.80;90.70;;;;;;5016342;28;20053;-79
2023/08/02 09:11:11;;;;;;;1.48;1.00;;;18.80;90.70;;;;;;5015831;28;20068;-79
2023/08/02 09:13:37;;;;;;;2.25;1.27;;;18.80;90.70;;;;;;5013878;28;20112;-79
2023/08/02 09:16:05;;;;;;;2.58;1.35;;;18.80;90.70;;;;;;5013304;28;20816;-79
2023/08/02 09:18:45;;;;;;;3.55;1.30;;;18.80;90.70;;;;;;5016171;28;20022;-79
2023/08/02 09:21:14;;;;;;;2.38;1.35;;;18.80;90.70;;;;;;5013714;28;20110;-79
2023/08/02 09:23:44;;;;;;;2.47;1.30;;;18.80;90.70;;;;;;5016019;28;20487;-81
2023/08/02 09:26:18;;;;;;;2.83;1.20;;;18.80;90.70;;;;;;5014063;28;20093;-79
2023/08/02 09:29:07;;;;;;;2.95;1.40;;;18.80;90.70;;;;;;4998685;28;20122;-80
2023/08/02 09:31:35;;;;;;;2.50;1.40;;;18.80;90.70;;;;;;5015983;28;20030;-79
2023/08/02 09:34:01;;;;;;;3.17;1.55;;;18.80;90.70;;;;;;5013234;28;20587;-80
2023/08/02 09:36:34;;;;;;;3.03;1.50;;;18.80;90.60;;;;;;5005498;28;20062;-77
2023/08/02 09:39:11;;;;;;;2.60;1.27;;;18.90;90.60;;;;;;4995570;28;20018;-80
2023/08/02 09:41:37;;;;;;;3.17;1.50;;;18.80;90.60;;;;;;4993892;28;20030;-79
2023/08/02 09:44:02;;;;;;;2.65;1.30;;;18.80;90.60;;;;;;4994904;28;20455;-79
2023/08/02 09:46:33;;;;;;;2.22;1.20;;;18.90;90.60;;;;;;5013292;28;20541;-79
2023/08/02 09:49:00;;;;;;;2.50;1.30;;;18.90;90.60;;;;;;5013021;28;20076;-79
2023/08/02 09:51:39;;;;;;;2.40;1.40;;;18.90;90.60;;;;;;5012796;28;20030;-79
2023/08/02 09:54:05;;;;;;;3.17;1.35;;;18.90;90.50;;;;;;5012401;28;20026;-79
2023/08/02 09:56:34;;;;;;;2.85;1.30;;;18.90;90.50;;;;;;4999095;28;20023;-80
2023/08/02 09:59:01;;;;;;;2.95;1.25;;;18.90;90.60;;;;;;4992990;28;20019;-79
2023/08/02 10:01:28;;;;;;;2.63;1.27;;;18.90;90.60;;;;;;4992973;28;20076;-76
2023/08/02 10:03:57;;;;;;;2.90;1.40;;;18.80;90.60;;;;;;4994171;28;20030;-79
2023/08/02 10:06:47;;;;;;;2.63;1.40;;;18.80;90.60;;;;;;4993942;28;20039;-80
2023/08/02 10:09:18;;;;;;;2.87;1.37;;;18.80;90.70;;;;;;5014974;28;20042;-84
2023/08/02 10:11:52;;;;;;;2.50;1.20;;;18.80;90.70;;;;;;5028543;28;20010;-81
2023/08/02 10:14:19;;;;;;;2.40;1.42;;;18.90;90.80;;;;;;5027258;28;20049;-80
2023/08/02 10:16:45;;;;;;;2.83;1.20;;;18.80;90.80;;;;;;5023748;28;20045;-81
2023/08/02 10:19:17;;;;;;;2.67;1.48;;;18.80;90.80;;;;;;5029756;28;20086;-83
2023/08/02 10:21:43;;;;;;;2.22;1.30;;;18.80;90.80;;;;;;5028404;28;20022;-83
2023/08/02 10:24:12;;;;;;;2.97;1.55;;;18.80;90.90;;;;;;5022837;28;20263;-80
2023/08/02 10:26:38;;;;;;;2.75;1.20;;;18.80;90.90;;;;;;5026850;28;20037;-81
2023/08/02 10:29:04;;;;;;;2.53;1.23;;;18.80;90.90;;;;;;5023898;28;20022;-82
2023/08/02 10:31:30;;;;;;;2.60;1.25;;;18.80;90.90;;;;;;5025826;28;20026;-82
2023/08/02 10:33:56;;;;;;;2.88;1.27;;;18.80;90.90;;;;;;5028818;28;20020;-82
2023/08/02 10:36:23;;;;;;;2.45;1.35;;;18.80;90.90;;;;;;5018859;28;20073;-82
2023/08/02 10:38:53;;;;;;;2.40;1.33;;;18.80;90.90;;;;;;5030509;28;20034;-84
2023/08/02 10:41:25;;;;;;;2.60;1.38;;;18.80;90.90;;;;;;5027806;28;20052;-82
2023/08/02 10:43:53;;;;;;;2.53;1.40;;;18.80;91.10;;;;;;5029504;28;20010;-82
2023/08/02 10:46:26;;;;;;;2.45;1.23;;;18.80;90.80;;;;;;5030297;28;20438;-81
2023/08/02 10:48:55;;;;;;;2.58;1.38;;;18.80;90.80;;;;;;5026423;28;20026;-81
2023/08/02 10:51:27;;;;;;;2.83;1.35;;;18.80;90.80;;;;;;5032458;28;20038;-81
2023/08/02 10:54:25;;;;;;;3.10;1.65;;;18.80;90.80;;;;;;5027695;28;20026;-81
2023/08/02 10:56:51;;;;;;;1.90;1.20;;;18.80;90.80;;;;;;5024159;28;20026;-81
2023/08/02 10:59:18;;;;;;;2.47;1.30;;;18.80;90.80;;;;;;5027158;28;20037;-82
2023/08/02 11:02:09;;;;;;;2.15;1.20;;;18.80;90.80;;;;;;5026513;28;20036;-80
2023/08/02 11:04:37;;;;;;;2.28;1.20;;;18.80;90.90;;;;;;5027310;28;20548;-81
2023/08/02 11:07:14;;;;;;;3.08;1.27;;;18.80;90.90;;;;;;5021346;28;20473;-80
2023/08/02 11:09:40;;;;;;;2.72;1.50;;;18.80;90.90;;;;;;5026027;28;20006;-79
2023/08/02 11:12:17;;;;;;;1.85;1.20;;;18.80;90.90;;;;;;5024618;28;20475;-80
2023/08/02 11:14:44;;;;;;;2.53;1.30;;;18.90;90.90;;;;;;5023682;28;20534;-80
2023/08/02 11:17:11;;;;;;;2.63;1.50;;;18.90;90.90;;;;;;5019607;28;20031;-80
2023/08/02 11:19:37;;;;;;;2.28;1.30;;;18.90;90.90;;;;;;5003388;28;20026;-80
2023/08/02 11:22:02;;;;;;;2.17;1.20;;;18.90;90.80;;;;;;5022800;28;20034;-80
2023/08/02 11:24:39;;;;;;;2.35;1.20;;;18.90;90.70;;;;;;5024636;28;20490;-79
2023/08/02 11:27:05;;;;;;;1.98;1.25;;;18.90;90.70;;;;;;5016660;28;20041;-80
2023/08/02 11:29:31;;;;;;;1.58;1.15;;;19.00;90.80;;;;;;5022312;28;20053;-80
2023/08/02 11:32:02;;;;;;;1.80;1.13;;;19.00;90.80;;;;;;5021694;28;20022;-79
2023/08/02 11:34:28;;;;;;;2.80;1.40;;;19.00;90.80;;;;;;5021334;28;20025;-79
2023/08/02 11:36:55;;;;;;;2.35;1.20;;;18.90;90.80;;;;;;5017738;28;20068;-80
2023/08/02 11:39:21;;;;;;;2.63;1.17;;;18.90;90.80;;;;;;5022807;28;20025;-80
2023/08/02 11:42:01;;;;;;;2.05;1.15;;;18.90;90.80;;;;;;5019854;28;20029;-80
2023/08/02 11:44:26;;;;;;;3.00;1.25;;;18.90;90.80;;;;;;5019063;28;20129;-77
2023/08/02 11:46:54;;;;;;;2.50;1.20;;;18.90;90.80;;;;;;5013590;28;20506;-79
2023/08/02 11:49:20;;;;;;;3.08;1.20;;;18.80;90.80;;;;;;5018459;28;20487;-80
2023/08/02 11:51:45;;;;;;;2.63;1.20;;;18.80;90.80;;;;;;5019298;28;20040;-80
2023/08/02 11:54:11;;;;;;;2.35;1.35;;;18.80;90.90;;;;;;5019166;28;20022;-80
2023/08/02 11:56:37;;;;;;;2.65;1.27;;;18.90;90.90;;;;;;5013092;28;20414;-80
2023/08/02 11:59:03;;;;;;;1.80;1.10;;;18.80;90.90;;;;;;5020083;28;20487;-79
2023/08/02 12:01:29;;;;;;;2.08;1.17;;;18.80;91.10;;;;;;5019827;28;20026;-81
2023/08/02 12:04:03;;;;;;;1.85;1.10;;;18.80;90.90;;;;;;5018351;28;20041;-79
2023/08/02 12:06:45;;;;;;;2.08;1.30;;;18.80;90.90;;;;;;5007716;28;20062;-79
2023/08/02 12:09:10;;;;;;;2.15;1.15;;;18.80;90.90;;;;;;5005733;28;20021;-79
2023/08/02 12:11:36;;;;;;;2.70;1.10;;;18.80;90.90;;;;;;5018227;28;20025;-79
2023/08/02 12:14:02;;;;;;;1.75;1.10;;;18.80;90.90;;;;;;5019253;28;20037;-79
2023/08/02 12:16:41;;;;;;;2.65;1.17;;;18.80;91.00;;;;;;5009146;28;20018;-78
2023/08/02 12:19:08;;;;;;;1.90;1.15;;;18.80;91.00;;;;;;5019016;28;20026;-80
2023/08/02 12:21:33;;;;;;;1.52;1.00;;;18.80;91.00;;;;;;5018697;28;20026;-79
2023/08/02 12:23:59;;;;;;;2.08;1.15;;;18.80;91.00;;;;;;5016488;28;20033;-80
2023/08/02 12:26:32;;;;;;;1.90;1.10;;;18.80;91.00;;;;;;5012754;28;20022;-81
2023/08/02 12:28:58;;;;;;;3.03;1.33;;;18.80;91.00;;;;;;5015668;28;20025;-79
2023/08/02 12:31:24;;;;;;;1.67;1.10;;;18.80;91.10;;;;;;5017529;28;20041;-80
2023/08/02 12:33:50;;;;;;;2.60;1.38;;;18.80;91.00;;;;;;5017595;28;20390;-79
2023/08/02 12:36:26;;;;;;;2.60;1.10;;;18.80;91.00;;;;;;5004970;28;20088;-80
2023/08/02 12:38:52;;;;;;;1.65;0.90;;;18.80;91.00;;;;;;4995555;28;20065;-82
2023/08/02 12:41:17;;;;;;;2.60;1.10;;;18.80;91.00;;;;;;4997521;28;20026;-79
2023/08/02 12:43:42;;;;;;;1.55;1.10;;;18.80;91.00;;;;;;4995476;28;20402;-79
2023/08/02 12:46:08;;;;;;;1.23;0.90;;;18.90;90.90;;;;;;5006968;28;20120;-79
2023/08/02 12:48:34;;;;;;;1.38;0.90;;;19.00;90.80;;;;;;5014972;28;20022;-79
2023/08/02 12:50:59;;;;;;;1.88;1.10;;;19.00;90.70;;;;;;5016103;28;20070;-79
2023/08/02 12:53:25;;;;;;;2.03;1.08;;;19.00;90.70;;;;;;5014336;28;20030;-79
2023/08/02 12:55:50;;;;;;;1.42;1.10;;;19.00;90.70;;;;;;5015857;28;20033;-79
2023/08/02 12:58:16;;;;;;;1.48;0.82;;;19.00;90.60;;;;;;5015418;28;20029;-80
2023/08/02 13:00:42;;;;;;;2.25;1.10;;;19.00;90.60;;;;;;5015401;28;20054;-79
2023/08/02 13:03:09;;;;;;;1.23;1.00;;;19.00;90.50;;;;;;5013656;28;20068;-79
2023/08/02 13:05:35;;;;;;;1.90;0.90;;;19.00;90.50;;;;;;5013466;28;20546;-80
2023/08/02 13:08:00;;;;;;;2.83;1.02;;;19.00;90.60;;;;;;5004212;28;20041;-80
2023/08/02 13:10:27;;;;;;;1.83;1.00;;;19.00;90.60;;;;;;4993957;28;20038;-76
2023/08/02 13:12:52;;;;;;;1.48;0.93;;;19.00;90.60;;;;;;4994103;28;20039;-80
2023/08/02 13:15:18;;;;;;;1.88;1.10;;;19.00;90.70;;;;;;4993442;28;20117;-80
2023/08/02 13:17:46;;;;;;;2.10;0.90;;;19.00;90.90;;;;;;4995486;28;20027;-80
2023/08/02 13:20:13;;;;;;;1.67;0.98;;;19.00;90.70;;;;;;4999523;28;20494;-80
2023/08/02 13:22:39;;;;;;;1.05;0.88;;;19.00;90.80;;;;;;5013452;28;20160;-79
2023/08/02 13:25:05;;;;;;;1.27;0.90;;;18.90;90.80;;;;;;5010530;28;20045;-80